createdAt,value
2017-04-08T00:00:34.825Z,0
2017-04-08T00:01:34.843Z,0
2017-04-08T00:02:34.864Z,0
2017-04-08T00:03:49.502Z,0
2017-04-08T00:04:49.218Z,0
2017-04-08T00:05:34.928Z,0
2017-04-08T00:06:34.948Z,0
2017-04-08T00:08:34.989Z,0
2017-04-08T00:09:35.014Z,0
2017-04-08T00:10:35.034Z,0
2017-04-08T00:11:35.059Z,0
2017-04-08T00:12:35.083Z,0
2017-04-08T00:13:49.716Z,0
2017-04-08T00:15:04.354Z,0
2017-04-08T00:15:49.759Z,0
2017-04-08T00:16:35.164Z,0
2017-04-08T00:17:35.190Z,0
2017-04-08T00:18:35.222Z,0
2017-04-08T00:19:49.843Z,0
2017-04-08T00:20:35.249Z,0
2017-04-08T00:21:35.269Z,0
2017-04-08T00:22:35.333Z,0
2017-04-08T00:23:35.010Z,0
2017-04-08T00:24:35.369Z,0
2017-04-08T00:25:36.054Z,0
2017-04-08T00:26:35.373Z,0
2017-04-08T00:27:50.013Z,0
2017-04-08T00:28:50.033Z,0
2017-04-08T00:29:35.436Z,0
2017-04-08T00:30:50.080Z,0
2017-04-08T00:31:50.101Z,0
2017-04-08T00:32:50.123Z,0
2017-04-08T00:33:50.141Z,0
2017-04-08T00:34:35.550Z,0
2017-04-08T00:35:50.180Z,0
2017-04-08T00:37:35.611Z,0
2017-04-08T00:38:35.632Z,0
2017-04-08T00:39:35.658Z,0
2017-04-08T00:40:35.673Z,0
2017-04-08T00:41:35.696Z,0
2017-04-08T00:42:35.714Z,0
2017-04-08T00:43:35.749Z,0
2017-04-08T00:44:50.373Z,0
2017-04-08T00:45:35.475Z,0
2017-04-08T00:46:35.801Z,0
2017-04-08T00:48:05.051Z,0
2017-04-08T00:49:05.070Z,0
2017-04-08T00:49:35.863Z,0
2017-04-08T00:50:35.883Z,0
2017-04-08T00:51:50.521Z,0
2017-04-08T00:53:35.948Z,0
2017-04-08T00:54:35.964Z,0
2017-04-08T00:55:36.021Z,0
2017-04-08T00:56:36.007Z,0
2017-04-08T00:57:36.030Z,0
2017-04-08T00:58:36.050Z,0
2017-04-08T00:59:36.078Z,0
2017-04-08T01:00:36.097Z,0
2017-04-08T01:01:36.115Z,0
2017-04-08T01:02:36.136Z,0
2017-04-08T01:03:36.159Z,0
2017-04-08T01:04:36.176Z,0
2017-04-08T01:05:36.228Z,0
2017-04-08T01:06:50.834Z,0
2017-04-08T01:07:36.241Z,0
2017-04-08T01:08:36.276Z,0
2017-04-08T01:09:36.280Z,0
2017-04-08T01:11:36.782Z,0
2017-04-08T01:12:36.346Z,0
2017-04-08T01:13:36.370Z,0
2017-04-08T01:14:51.007Z,0
2017-04-08T01:15:36.409Z,0
2017-04-08T01:16:51.054Z,0
2017-04-08T01:17:36.459Z,0
2017-04-08T01:18:36.481Z,0
2017-04-08T01:20:05.727Z,0
2017-04-08T01:20:36.517Z,0
2017-04-08T01:21:36.534Z,0
2017-04-08T01:22:36.585Z,0
2017-04-08T01:23:36.581Z,0
2017-04-08T01:24:51.211Z,0
2017-04-08T01:27:36.675Z,0
2017-04-08T01:28:36.681Z,0
2017-04-08T01:29:36.743Z,0
2017-04-08T01:30:36.722Z,0
2017-04-08T01:31:36.752Z,0
2017-04-08T01:32:51.381Z,0
2017-04-08T01:33:36.785Z,0
2017-04-08T01:34:36.505Z,0
2017-04-08T01:35:51.442Z,0
2017-04-08T01:37:36.869Z,0
2017-04-08T01:38:51.508Z,0
2017-04-08T01:39:51.527Z,0
2017-04-08T01:40:51.547Z,0
2017-04-08T01:41:36.961Z,0
2017-04-08T01:42:36.977Z,0
2017-04-08T01:44:51.334Z,0
2017-04-08T01:45:51.664Z,0
2017-04-08T01:46:51.681Z,0
2017-04-08T01:47:36.785Z,0
2017-04-08T01:48:37.101Z,0
2017-04-08T01:49:37.125Z,0
2017-04-08T01:51:06.377Z,0
2017-04-08T01:51:36.859Z,0
2017-04-08T01:52:51.813Z,0
2017-04-08T01:53:37.209Z,0
2017-04-08T01:54:51.844Z,0
2017-04-08T01:55:36.946Z,0
2017-04-08T01:56:51.883Z,0
2017-04-08T01:57:37.294Z,0
2017-04-08T01:58:37.315Z,0
2017-04-08T01:59:51.953Z,0
2017-04-08T02:00:37.350Z,0
2017-04-08T02:01:37.383Z,0
2017-04-08T02:02:52.015Z,0
2017-04-08T02:03:52.035Z,0
2017-04-08T02:04:37.135Z,0
2017-04-08T02:05:37.456Z,0
2017-04-08T02:06:52.097Z,0
2017-04-08T02:07:52.117Z,0
2017-04-08T02:08:37.530Z,0
2017-04-08T02:09:37.546Z,0
2017-04-08T02:10:52.177Z,0
2017-04-08T02:11:37.589Z,0
2017-04-08T02:12:37.656Z,0
2017-04-08T02:13:37.629Z,0
2017-04-08T02:15:37.672Z,0
2017-04-08T02:16:37.688Z,0
2017-04-08T02:17:52.332Z,0
2017-04-08T02:18:37.736Z,0
2017-04-08T02:19:37.765Z,0
2017-04-08T02:20:37.773Z,0
2017-04-08T02:21:52.408Z,0
2017-04-08T02:22:37.818Z,0
2017-04-08T02:24:37.556Z,0
2017-04-08T02:25:37.880Z,0
2017-04-08T02:27:52.544Z,0
2017-04-08T02:28:37.945Z,0
2017-04-08T02:29:37.962Z,0
2017-04-08T02:30:52.601Z,0
2017-04-08T02:31:38.007Z,0
2017-04-08T02:33:38.049Z,0
2017-04-08T02:34:38.071Z,0
2017-04-08T02:35:38.084Z,0
2017-04-08T02:36:38.108Z,0
2017-04-08T02:37:52.747Z,0
2017-04-08T02:38:38.146Z,0
2017-04-08T02:39:38.171Z,0
2017-04-08T02:40:38.189Z,0
2017-04-08T02:41:52.838Z,0
2017-04-08T02:42:38.237Z,0
2017-04-08T02:43:38.251Z,0
2017-04-08T02:44:38.277Z,0
2017-04-08T02:45:38.293Z,0
2017-04-08T02:46:38.313Z,0
2017-04-08T02:47:38.028Z,0
2017-04-08T02:48:38.056Z,0
2017-04-08T02:49:38.382Z,0
2017-04-08T02:50:38.397Z,0
2017-04-08T02:51:38.420Z,0
2017-04-08T02:52:38.439Z,0
2017-04-08T02:53:38.459Z,0
2017-04-08T02:54:38.480Z,0
2017-04-08T02:55:38.511Z,0
2017-04-08T02:56:53.140Z,0
2017-04-08T02:57:38.892Z,0
2017-04-08T02:58:38.573Z,0
2017-04-08T02:59:38.588Z,0
2017-04-08T03:00:38.327Z,0
2017-04-08T03:01:38.632Z,0
2017-04-08T03:03:38.697Z,0
2017-04-08T03:04:38.690Z,0
2017-04-08T03:05:53.327Z,0
2017-04-08T03:06:53.347Z,0
2017-04-08T03:07:38.750Z,0
2017-04-08T03:09:08.007Z,0
2017-04-08T03:09:38.797Z,0
2017-04-08T03:11:08.046Z,0
2017-04-08T03:11:38.833Z,0
2017-04-08T03:12:38.854Z,0
2017-04-08T03:13:53.490Z,0
2017-04-08T03:14:38.894Z,0
2017-04-08T03:15:38.919Z,0
2017-04-08T03:17:38.958Z,0
2017-04-08T03:18:38.981Z,0
2017-04-08T03:19:39.005Z,0
2017-04-08T03:20:39.024Z,0
2017-04-08T03:22:39.068Z,0
2017-04-08T03:23:39.088Z,0
2017-04-08T03:24:53.725Z,0
2017-04-08T03:25:39.131Z,0
2017-04-08T03:26:39.161Z,0
2017-04-08T03:27:38.866Z,0
2017-04-08T03:28:39.199Z,0
2017-04-08T03:30:53.844Z,0
2017-04-08T03:31:39.248Z,0
2017-04-08T03:32:39.272Z,0
2017-04-08T03:33:39.292Z,0
2017-04-08T03:34:39.011Z,0
2017-04-08T03:35:39.631Z,0
2017-04-08T03:36:53.971Z,0
2017-04-08T03:37:39.374Z,0
2017-04-08T03:38:39.404Z,0
2017-04-08T03:39:39.413Z,0
2017-04-08T03:40:39.435Z,0
2017-04-08T03:41:39.461Z,0
2017-04-08T03:42:39.480Z,0
2017-04-08T03:43:39.496Z,0
2017-04-08T03:44:39.517Z,0
2017-04-08T03:46:08.777Z,0
2017-04-08T03:46:39.559Z,0
2017-04-08T03:47:39.582Z,0
2017-04-08T03:48:39.602Z,0
2017-04-08T03:49:39.620Z,0
2017-04-08T03:50:40.008Z,0
2017-04-08T03:51:39.367Z,0
2017-04-08T03:52:39.691Z,0
2017-04-08T03:53:54.323Z,0
2017-04-08T03:54:39.732Z,0
2017-04-08T03:55:39.896Z,0
2017-04-08T03:56:39.467Z,0
2017-04-08T03:57:39.809Z,0
2017-04-08T03:59:09.041Z,0
2017-04-08T03:59:39.830Z,0
2017-04-08T04:00:39.850Z,0
2017-04-08T04:02:39.933Z,0
2017-04-08T04:03:39.919Z,0
2017-04-08T04:04:39.664Z,0
2017-04-08T04:06:54.595Z,0
2017-04-08T04:07:39.998Z,0
2017-04-08T04:08:40.024Z,0
2017-04-08T04:09:40.037Z,0
2017-04-08T04:10:40.057Z,0
2017-04-08T04:11:40.075Z,0
2017-04-08T04:12:40.098Z,0
2017-04-08T04:13:40.126Z,0
2017-04-08T04:15:09.372Z,0
2017-04-08T04:15:40.161Z,0
2017-04-08T04:16:54.796Z,0
2017-04-08T04:17:40.212Z,0
2017-04-08T04:18:40.226Z,0
2017-04-08T04:19:40.246Z,0
2017-04-08T04:20:40.286Z,0
2017-04-08T04:21:39.987Z,0
2017-04-08T04:22:40.324Z,0
2017-04-08T04:23:40.332Z,0
2017-04-08T04:24:54.967Z,0
2017-04-08T04:25:54.684Z,0
2017-04-08T04:26:40.393Z,0
2017-04-08T04:27:40.422Z,0
2017-04-08T04:29:40.454Z,0
2017-04-08T04:30:40.476Z,0
2017-04-08T04:31:40.491Z,0
2017-04-08T04:32:40.514Z,0
2017-04-08T04:33:40.530Z,0
2017-04-08T04:34:40.554Z,0
2017-04-08T04:35:40.572Z,0
2017-04-08T04:36:40.297Z,0
2017-04-08T04:37:40.613Z,0
2017-04-08T04:39:40.656Z,0
2017-04-08T04:40:40.680Z,0
2017-04-08T04:41:40.698Z,5
2017-04-08T04:42:40.720Z,5
2017-04-08T04:43:55.361Z,5
2017-04-08T04:44:40.763Z,5
2017-04-08T04:45:40.779Z,5
2017-04-08T04:46:40.503Z,5
2017-04-08T04:47:40.820Z,5
2017-04-08T04:48:55.462Z,5
2017-04-08T04:49:55.479Z,5
2017-04-08T04:50:40.927Z,5
2017-04-08T04:51:40.914Z,5
2017-04-08T04:52:55.549Z,5
2017-04-08T04:53:40.649Z,10
2017-04-08T04:54:40.978Z,10
2017-04-08T04:55:55.609Z,10
2017-04-08T04:56:41.014Z,10
2017-04-08T04:57:41.036Z,10
2017-04-08T04:59:55.691Z,10
2017-04-08T05:00:55.710Z,10
2017-04-08T05:01:55.729Z,10
2017-04-08T05:03:41.158Z,10
2017-04-08T05:05:41.198Z,10
2017-04-08T05:06:40.918Z,10
2017-04-08T05:07:41.277Z,10
2017-04-08T05:08:41.260Z,10
2017-04-08T05:09:41.280Z,10
2017-04-08T05:10:41.299Z,10
2017-04-08T05:11:41.016Z,15
2017-04-08T05:12:41.040Z,15
2017-04-08T05:13:41.385Z,15
2017-04-08T05:14:55.694Z,15
2017-04-08T05:15:41.411Z,15
2017-04-08T05:16:56.041Z,20
2017-04-08T05:17:41.441Z,20
2017-04-08T05:18:41.162Z,20
2017-04-08T05:19:41.188Z,20
2017-04-08T05:20:56.123Z,20
2017-04-08T05:21:56.499Z,20
2017-04-08T05:22:42.104Z,20
2017-04-08T05:23:56.212Z,25
2017-04-08T05:25:41.608Z,25
2017-04-08T05:26:41.635Z,25
2017-04-08T05:27:56.268Z,25
2017-04-08T05:28:41.678Z,25
2017-04-08T05:29:41.693Z,25
2017-04-08T05:30:41.717Z,25
2017-04-08T05:31:41.737Z,25
2017-04-08T05:32:41.751Z,25
2017-04-08T05:34:11.006Z,25
2017-04-08T05:34:41.793Z,25
2017-04-08T05:36:56.456Z,25
2017-04-08T05:37:41.854Z,25
2017-04-08T05:38:56.493Z,25
2017-04-08T05:40:41.933Z,25
2017-04-08T05:41:41.942Z,25
2017-04-08T05:42:41.662Z,25
2017-04-08T05:43:41.989Z,30
2017-04-08T05:44:42.022Z,30
2017-04-08T05:45:56.642Z,35
2017-04-08T05:46:42.047Z,35
2017-04-08T05:47:56.682Z,40
2017-04-08T05:48:42.101Z,45
2017-04-08T05:49:56.724Z,45
2017-04-08T05:50:42.127Z,45
2017-04-08T05:51:57.218Z,50
2017-04-08T05:52:41.874Z,50
2017-04-08T05:53:56.814Z,50
2017-04-08T05:54:42.222Z,50
2017-04-08T05:56:42.258Z,50
2017-04-08T05:58:11.513Z,55
2017-04-08T05:58:42.299Z,55
2017-04-08T05:59:42.319Z,65
2017-04-08T06:00:42.335Z,75
2017-04-08T06:01:42.356Z,85
2017-04-08T06:02:42.378Z,70
2017-04-08T06:03:42.398Z,55
2017-04-08T06:04:42.422Z,55
2017-04-08T06:05:42.445Z,55
2017-04-08T06:06:42.461Z,50
2017-04-08T06:08:42.505Z,45
2017-04-08T06:09:42.528Z,40
2017-04-08T06:10:42.251Z,40
2017-04-08T06:11:42.566Z,40
2017-04-08T06:12:42.594Z,40
2017-04-08T06:13:42.316Z,40
2017-04-08T06:14:42.639Z,45
2017-04-08T06:15:57.277Z,50
2017-04-08T06:16:42.675Z,50
2017-04-08T06:17:42.699Z,50
2017-04-08T06:18:57.338Z,50
2017-04-08T06:19:42.749Z,50
2017-04-08T06:20:42.761Z,50
2017-04-08T06:21:42.878Z,45
2017-04-08T06:22:42.802Z,45
2017-04-08T06:23:57.438Z,50
2017-04-08T06:24:42.844Z,60
2017-04-08T06:25:42.862Z,75
2017-04-08T06:26:42.884Z,90
2017-04-08T06:27:42.905Z,80
2017-04-08T06:28:42.931Z,75
2017-04-08T06:29:42.947Z,65
2017-04-08T06:30:42.971Z,70
2017-04-08T06:31:43.005Z,70
2017-04-08T06:32:43.013Z,80
2017-04-08T06:33:43.033Z,100
2017-04-08T06:34:43.059Z,140
2017-04-08T06:35:43.077Z,145
2017-04-08T06:36:43.101Z,340
2017-04-08T06:37:43.118Z,85
2017-04-08T06:38:42.840Z,80
2017-04-08T06:39:57.783Z,85
2017-04-08T06:40:43.189Z,100
2017-04-08T06:41:43.204Z,130
2017-04-08T06:42:43.241Z,150
2017-04-08T06:43:43.250Z,125
2017-04-08T06:44:43.288Z,180
2017-04-08T06:45:43.291Z,320
2017-04-08T06:46:43.312Z,265
2017-04-08T06:47:43.338Z,785
2017-04-08T06:48:57.974Z,200
2017-04-08T06:49:57.996Z,175
2017-04-08T06:50:43.402Z,175
2017-04-08T06:51:43.121Z,415
2017-04-08T06:52:58.067Z,175
2017-04-08T06:53:58.085Z,105
2017-04-08T06:54:43.492Z,105
2017-04-08T06:57:43.561Z,95
2017-04-08T06:59:58.227Z,150
2017-04-08T07:00:58.243Z,115
2017-04-08T07:01:43.647Z,105
2017-04-08T07:02:43.672Z,105
2017-04-08T07:03:58.309Z,110
2017-04-08T07:04:43.712Z,100
2017-04-08T07:05:43.732Z,100
2017-04-08T07:06:43.757Z,105
2017-04-08T07:07:58.094Z,105
2017-04-08T07:08:43.812Z,105
2017-04-08T07:09:58.441Z,95
2017-04-08T07:10:58.460Z,100
2017-04-08T07:11:58.485Z,105
2017-04-08T07:12:43.885Z,100
2017-04-08T07:13:43.909Z,95
2017-04-08T07:14:43.959Z,95
2017-04-08T07:15:44.110Z,90
2017-04-08T07:16:43.974Z,80
2017-04-08T07:18:44.023Z,75
2017-04-08T07:19:58.659Z,80
2017-04-08T07:20:58.683Z,90
2017-04-08T07:21:44.087Z,95
2017-04-08T07:22:58.732Z,95
2017-04-08T07:24:13.365Z,100
2017-04-08T07:24:44.159Z,100
2017-04-08T07:25:44.178Z,95
2017-04-08T07:26:58.814Z,105
2017-04-08T07:27:43.927Z,120
2017-04-08T07:29:44.274Z,135
2017-04-08T07:31:44.311Z,100
2017-04-08T07:32:44.329Z,95
2017-04-08T07:33:44.361Z,95
2017-04-08T07:34:44.382Z,115
2017-04-08T07:35:59.017Z,135
2017-04-08T07:36:44.423Z,115
2017-04-08T07:37:44.443Z,85
2017-04-08T07:38:44.687Z,100
2017-04-08T07:39:44.690Z,140
2017-04-08T07:40:44.563Z,135
2017-04-08T07:42:44.555Z,95
2017-04-08T07:43:44.584Z,130
2017-04-08T07:44:44.611Z,195
2017-04-08T07:45:44.974Z,280
2017-04-08T07:46:44.644Z,145
2017-04-08T07:47:58.984Z,105
2017-04-08T07:48:44.691Z,110
2017-04-08T07:49:44.409Z,150
2017-04-08T07:50:44.740Z,205
2017-04-08T07:51:44.811Z,535
2017-04-08T07:52:44.796Z,150
2017-04-08T07:53:59.424Z,115
2017-04-08T07:54:44.836Z,125
2017-04-08T07:55:44.847Z,175
2017-04-08T07:56:44.911Z,475
2017-04-08T07:57:44.897Z,285
2017-04-08T07:59:59.555Z,125
2017-04-08T08:00:44.963Z,125
2017-04-08T08:01:44.984Z,135
2017-04-08T08:02:45.011Z,150
2017-04-08T08:03:45.033Z,160
2017-04-08T08:04:45.057Z,170
2017-04-08T08:05:45.075Z,165
2017-04-08T08:06:45.099Z,145
2017-04-08T08:08:45.149Z,130
2017-04-08T08:09:45.169Z,135
2017-04-08T08:10:45.190Z,175
2017-04-08T08:11:45.214Z,225
2017-04-08T08:12:59.549Z,230
2017-04-08T08:13:44.955Z,240
2017-04-08T08:14:59.900Z,285
2017-04-08T08:15:59.921Z,190
2017-04-08T08:16:59.943Z,385
2017-04-08T08:17:45.356Z,400
2017-04-08T08:18:45.069Z,510
2017-04-08T08:20:45.825Z,215
2017-04-08T08:21:45.451Z,205
2017-04-08T08:22:45.476Z,180
2017-04-08T08:24:00.112Z,195
2017-04-08T08:24:45.521Z,695
2017-04-08T08:25:45.239Z,885
2017-04-08T08:26:45.567Z,300
2017-04-08T08:27:45.593Z,220
2017-04-08T08:28:45.617Z,215
2017-04-08T08:29:45.640Z,205
2017-04-08T08:32:45.713Z,155
2017-04-08T08:33:45.737Z,205
2017-04-08T08:34:45.757Z,540
2017-04-08T08:36:00.402Z,195
2017-04-08T08:36:45.806Z,175
2017-04-08T08:37:45.844Z,335
2017-04-08T08:38:45.861Z,645
2017-04-08T08:40:00.495Z,610
2017-04-08T08:40:45.904Z,435
2017-04-08T08:41:45.930Z,785
2017-04-08T08:42:45.964Z,530
2017-04-08T08:43:45.984Z,525
2017-04-08T08:44:46.007Z,250
2017-04-08T08:45:46.028Z,250
2017-04-08T08:47:00.682Z,675
2017-04-08T08:47:46.089Z,300
2017-04-08T08:48:45.807Z,265
2017-04-08T08:49:46.132Z,240
2017-04-08T08:50:46.152Z,230
2017-04-08T08:51:46.177Z,650
2017-04-08T08:52:46.204Z,400
2017-04-08T08:53:46.225Z,395
2017-04-08T08:54:46.252Z,590
2017-04-08T08:55:46.279Z,640
2017-04-08T08:57:00.921Z,285
2017-04-08T08:57:46.054Z,290
2017-04-08T08:58:46.357Z,230
2017-04-08T08:59:46.380Z,235
2017-04-08T09:00:46.412Z,615
2017-04-08T09:02:01.053Z,340
2017-04-08T09:02:46.163Z,270
2017-04-08T09:03:46.189Z,365
2017-04-08T09:04:46.510Z,275
2017-04-08T09:05:46.560Z,240
2017-04-08T09:06:46.715Z,385
2017-04-08T09:07:46.595Z,255
2017-04-08T09:08:46.620Z,280
2017-04-08T09:09:46.646Z,305
2017-04-08T09:10:46.668Z,385
2017-04-08T09:11:46.690Z,275
2017-04-08T09:13:15.955Z,250
2017-04-08T09:14:01.362Z,310
2017-04-08T09:15:01.388Z,275
2017-04-08T09:15:46.796Z,300
2017-04-08T09:16:46.521Z,325
2017-04-08T09:17:46.854Z,260
2017-04-08T09:18:47.134Z,320
2017-04-08T09:19:46.896Z,270
2017-04-08T09:21:46.948Z,225
2017-04-08T09:22:46.973Z,225
2017-04-08T09:23:47.000Z,235
2017-04-08T09:24:47.029Z,205
2017-04-08T09:25:47.064Z,165
2017-04-08T09:26:46.775Z,155
2017-04-08T09:28:01.721Z,150
2017-04-08T09:28:47.141Z,150
2017-04-08T09:29:47.155Z,145
2017-04-08T09:30:47.183Z,140
2017-04-08T09:31:46.902Z,150
2017-04-08T09:32:47.235Z,165
2017-04-08T09:34:01.584Z,170
2017-04-08T09:34:46.983Z,190
2017-04-08T09:35:47.306Z,220
2017-04-08T09:36:47.335Z,335
2017-04-08T09:37:47.360Z,250
2017-04-08T09:38:47.389Z,245
2017-04-08T09:39:47.407Z,285
2017-04-08T09:40:47.432Z,355
2017-04-08T09:41:47.457Z,260
2017-04-08T09:42:47.485Z,230
2017-04-08T09:44:02.137Z,215
2017-04-08T09:44:47.533Z,230
2017-04-08T09:45:47.560Z,240
2017-04-08T09:46:47.602Z,225
2017-04-08T09:47:47.614Z,215
2017-04-08T09:48:47.639Z,205
2017-04-08T09:50:02.275Z,190
2017-04-08T09:50:47.688Z,185
2017-04-08T09:51:47.712Z,170
2017-04-08T09:52:47.433Z,155
2017-04-08T09:53:47.763Z,150
2017-04-08T09:55:47.842Z,155
2017-04-08T09:56:47.833Z,155
2017-04-08T09:57:47.863Z,170
2017-04-08T09:59:02.503Z,160
2017-04-08T09:59:47.606Z,170
2017-04-08T10:00:47.933Z,195
2017-04-08T10:01:47.959Z,305
2017-04-08T10:02:47.985Z,405
2017-04-08T10:03:47.765Z,315
2017-04-08T10:04:48.035Z,275
2017-04-08T10:06:02.677Z,275
2017-04-08T10:06:48.085Z,260
2017-04-08T10:07:48.116Z,315
2017-04-08T10:08:48.139Z,380
2017-04-08T10:10:48.182Z,230
2017-04-08T10:11:47.908Z,220
2017-04-08T10:12:47.935Z,220
2017-04-08T10:14:48.302Z,230
2017-04-08T10:15:48.011Z,220
2017-04-08T10:16:48.033Z,205
2017-04-08T10:17:48.362Z,190
2017-04-08T10:18:48.083Z,165
2017-04-08T10:19:48.413Z,145
2017-04-08T10:20:48.435Z,145
2017-04-08T10:22:03.078Z,145
2017-04-08T10:22:48.494Z,155
2017-04-08T10:23:48.513Z,190
2017-04-08T10:25:48.564Z,165
2017-04-08T10:26:48.593Z,155
2017-04-08T10:27:48.622Z,165
2017-04-08T10:28:48.654Z,180
2017-04-08T10:30:17.902Z,200
2017-04-08T10:30:48.694Z,200
2017-04-08T10:32:03.331Z,200
2017-04-08T10:32:48.437Z,200
2017-04-08T10:33:48.764Z,200
2017-04-08T10:34:48.790Z,205
2017-04-08T10:35:48.827Z,200
2017-04-08T10:38:03.483Z,200
2017-04-08T10:38:48.892Z,205
2017-04-08T10:40:03.531Z,210
2017-04-08T10:41:03.564Z,205
2017-04-08T10:41:48.664Z,205
2017-04-08T10:42:48.992Z,205
2017-04-08T10:43:49.020Z,200
2017-04-08T10:44:49.073Z,205
2017-04-08T10:46:49.091Z,195
2017-04-08T10:48:03.739Z,175
2017-04-08T10:48:49.156Z,175
2017-04-08T10:49:49.168Z,185
2017-04-08T10:50:49.193Z,275
2017-04-08T10:51:49.216Z,305
2017-04-08T10:52:49.241Z,315
2017-04-08T10:53:49.265Z,285
2017-04-08T10:54:49.291Z,245
2017-04-08T10:55:49.316Z,265
2017-04-08T10:56:49.043Z,250
2017-04-08T10:57:49.063Z,240
2017-04-08T10:58:49.388Z,225
2017-04-08T10:59:49.415Z,220
2017-04-08T11:00:49.439Z,220
2017-04-08T11:02:03.781Z,225
2017-04-08T11:02:49.196Z,220
2017-04-08T11:03:49.516Z,215
2017-04-08T11:04:49.543Z,280
2017-04-08T11:06:18.802Z,245
2017-04-08T11:06:49.591Z,215
2017-04-08T11:07:49.617Z,205
2017-04-08T11:09:04.264Z,190
2017-04-08T11:09:49.668Z,190
2017-04-08T11:10:49.696Z,190
2017-04-08T11:12:04.334Z,260
2017-04-08T11:12:49.744Z,225
2017-04-08T11:13:49.771Z,260
2017-04-08T11:15:49.819Z,255
2017-04-08T11:16:49.844Z,235
2017-04-08T11:17:49.868Z,230
2017-04-08T11:18:49.898Z,250
2017-04-08T11:19:49.922Z,195
2017-04-08T11:21:04.566Z,230
2017-04-08T11:21:49.987Z,215
2017-04-08T11:23:04.614Z,205
2017-04-08T11:23:50.029Z,205
2017-04-08T11:25:04.667Z,215
2017-04-08T11:26:50.103Z,230
2017-04-08T11:27:50.125Z,235
2017-04-08T11:28:50.158Z,230
2017-04-08T11:29:50.174Z,170
2017-04-08T11:30:50.202Z,160
2017-04-08T11:32:04.540Z,155
2017-04-08T11:32:50.264Z,155
2017-04-08T11:34:04.588Z,160
2017-04-08T11:34:50.001Z,155
2017-04-08T11:36:04.944Z,160
2017-04-08T11:36:50.355Z,155
2017-04-08T11:37:50.393Z,210
2017-04-08T11:38:50.400Z,210
2017-04-08T11:39:50.689Z,205
2017-04-08T11:41:05.067Z,225
2017-04-08T11:41:50.472Z,235
2017-04-08T11:43:05.115Z,240
2017-04-08T11:43:50.525Z,245
2017-04-08T11:44:50.248Z,215
2017-04-08T11:46:50.297Z,210
2017-04-08T11:47:50.626Z,200
2017-04-08T11:48:50.650Z,190
2017-04-08T11:49:50.675Z,190
2017-04-08T11:50:50.702Z,185
2017-04-08T11:52:05.345Z,180
2017-04-08T11:52:50.755Z,180
2017-04-08T11:53:50.774Z,175
2017-04-08T11:54:50.800Z,170
2017-04-08T11:55:50.525Z,170
2017-04-08T11:57:05.469Z,165
2017-04-08T11:57:50.878Z,160
2017-04-08T11:58:50.902Z,200
2017-04-08T11:59:50.931Z,205
2017-04-08T12:00:50.958Z,175
2017-04-08T12:02:05.608Z,145
2017-04-08T12:02:50.700Z,145
2017-04-08T12:03:51.030Z,145
2017-04-08T12:04:51.060Z,155
2017-04-08T12:05:51.082Z,160
2017-04-08T12:07:05.719Z,170
2017-04-08T12:08:05.442Z,205
2017-04-08T12:08:51.163Z,225
2017-04-08T12:10:05.490Z,170
2017-04-08T12:10:51.206Z,205
2017-04-08T12:12:05.541Z,180
2017-04-08T12:12:51.254Z,200
2017-04-08T12:13:51.276Z,205
2017-04-08T12:14:51.307Z,175
2017-04-08T12:15:51.327Z,185
2017-04-08T12:16:51.351Z,205
2017-04-08T12:18:51.404Z,195
2017-04-08T12:19:50.821Z,190
2017-04-08T12:20:51.454Z,190
2017-04-08T12:21:51.479Z,215
2017-04-08T12:22:51.231Z,185
2017-04-08T12:24:20.763Z,175
2017-04-08T12:24:51.551Z,175
2017-04-08T12:27:06.222Z,180
2017-04-08T12:27:51.629Z,175
2017-04-08T12:28:51.350Z,170
2017-04-08T12:29:51.678Z,200
2017-04-08T12:30:51.704Z,235
2017-04-08T12:32:51.763Z,180
2017-04-08T12:33:51.782Z,185
2017-04-08T12:35:06.429Z,210
2017-04-08T12:35:51.835Z,185
2017-04-08T12:36:51.858Z,230
2017-04-08T12:37:51.887Z,215
2017-04-08T12:39:06.529Z,245
2017-04-08T12:39:52.284Z,215
2017-04-08T12:41:06.573Z,170
2017-04-08T12:41:51.982Z,175
2017-04-08T12:42:52.002Z,195
2017-04-08T12:44:06.646Z,190
2017-04-08T12:45:06.672Z,220
2017-04-08T12:45:52.081Z,185
2017-04-08T12:47:52.128Z,225
2017-04-08T12:48:52.158Z,250
2017-04-08T12:49:51.877Z,190
2017-04-08T12:50:52.204Z,180
2017-04-08T12:51:52.234Z,175
2017-04-08T12:52:51.954Z,165
2017-04-08T12:53:52.292Z,155
2017-04-08T12:55:06.925Z,150
2017-04-08T12:56:21.568Z,145
2017-04-08T12:56:52.363Z,145
2017-04-08T12:57:52.385Z,145
2017-04-08T12:58:52.406Z,145
2017-04-08T13:00:07.050Z,150
2017-04-08T13:00:52.459Z,150
2017-04-08T13:02:52.508Z,155
2017-04-08T13:03:52.542Z,155
2017-04-08T13:04:52.561Z,155
2017-04-08T13:05:52.587Z,155
2017-04-08T13:06:52.615Z,150
2017-04-08T13:08:06.950Z,140
2017-04-08T13:08:52.672Z,135
2017-04-08T13:09:52.684Z,135
2017-04-08T13:10:52.409Z,130
2017-04-08T13:11:52.436Z,120
2017-04-08T13:12:52.765Z,115
2017-04-08T13:13:52.485Z,110
2017-04-08T13:14:52.813Z,105
2017-04-08T13:16:07.455Z,105
2017-04-08T13:16:52.555Z,100
2017-04-08T13:18:52.915Z,100
2017-04-08T13:19:52.938Z,100
2017-04-08T13:20:52.659Z,100
2017-04-08T13:21:52.686Z,100
2017-04-08T13:23:07.632Z,100
2017-04-08T13:23:53.052Z,100
2017-04-08T13:24:53.060Z,100
2017-04-08T13:25:52.779Z,100
2017-04-08T13:26:53.111Z,100
2017-04-08T13:27:53.134Z,95
2017-04-08T13:30:07.803Z,90
2017-04-08T13:30:53.204Z,85
2017-04-08T13:32:07.546Z,85
2017-04-08T13:32:53.258Z,80
2017-04-08T13:33:53.281Z,75
2017-04-08T13:34:53.003Z,75
2017-04-08T13:37:53.377Z,60
2017-04-08T13:38:53.403Z,55
2017-04-08T13:39:53.126Z,55
2017-04-08T13:41:53.478Z,55
2017-04-08T13:43:08.119Z,55
2017-04-08T13:43:53.526Z,55
2017-04-08T13:44:53.250Z,55
2017-04-08T13:45:53.578Z,50
2017-04-08T13:47:53.332Z,55
2017-04-08T13:48:53.651Z,55
2017-04-08T13:50:08.304Z,55
2017-04-08T13:50:53.697Z,55
2017-04-08T13:51:53.726Z,60
2017-04-08T13:53:53.771Z,60
2017-04-08T13:54:54.047Z,60
2017-04-08T13:55:53.827Z,60
2017-04-08T13:57:08.467Z,60
2017-04-08T13:57:53.871Z,55
2017-04-08T13:58:53.896Z,55
2017-04-08T13:59:54.066Z,60
2017-04-08T14:00:53.947Z,60
2017-04-08T14:01:54.572Z,60
2017-04-08T14:03:54.017Z,65
2017-04-08T14:04:54.344Z,65
2017-04-08T14:05:54.065Z,65
2017-04-08T14:07:54.118Z,65
2017-04-08T14:08:54.142Z,65
2017-04-08T14:09:54.168Z,65
2017-04-08T14:10:54.181Z,65
2017-04-08T14:11:54.232Z,65
2017-04-08T14:12:54.272Z,65
2017-04-08T14:13:54.264Z,65
2017-04-08T14:15:08.897Z,65
2017-04-08T14:15:54.336Z,70
2017-04-08T14:16:54.337Z,70
2017-04-08T14:18:08.969Z,75
2017-04-08T14:19:54.404Z,75
2017-04-08T14:21:09.039Z,80
2017-04-08T14:21:54.451Z,85
2017-04-08T14:22:54.476Z,85
2017-04-08T14:24:09.117Z,90
2017-04-08T14:24:54.829Z,90
2017-04-08T14:25:54.546Z,95
2017-04-08T14:26:54.570Z,95
2017-04-08T14:27:54.596Z,95
2017-04-08T14:28:54.620Z,95
2017-04-08T14:30:54.675Z,90
2017-04-08T14:31:54.689Z,85
2017-04-08T14:32:54.719Z,85
2017-04-08T14:33:54.741Z,80
2017-04-08T14:35:54.787Z,80
2017-04-08T14:37:54.850Z,80
2017-04-08T14:38:54.861Z,80
2017-04-08T14:39:54.887Z,80
2017-04-08T14:40:54.913Z,80
2017-04-08T14:41:54.932Z,80
2017-04-08T14:42:54.964Z,85
2017-04-08T14:44:55.007Z,85
2017-04-08T14:45:55.033Z,90
2017-04-08T14:46:55.063Z,90
2017-04-08T14:47:55.081Z,85
2017-04-08T14:49:09.417Z,85
2017-04-08T14:50:09.744Z,85
2017-04-08T14:51:09.766Z,85
2017-04-08T14:51:55.173Z,85
2017-04-08T14:52:55.198Z,85
2017-04-08T14:53:55.220Z,85
2017-04-08T14:55:09.565Z,80
2017-04-08T14:55:54.663Z,80
2017-04-08T14:56:55.299Z,80
2017-04-08T14:57:55.568Z,80
2017-04-08T14:59:09.962Z,80
2017-04-08T15:00:09.985Z,80
2017-04-08T15:00:55.396Z,80
2017-04-08T15:01:55.421Z,85
2017-04-08T15:03:10.067Z,85
2017-04-08T15:03:55.162Z,80
2017-04-08T15:04:55.491Z,80
2017-04-08T15:05:55.518Z,85
2017-04-08T15:07:10.160Z,85
2017-04-08T15:07:55.567Z,85
2017-04-08T15:08:55.293Z,85
2017-04-08T15:09:55.609Z,85
2017-04-08T15:11:55.663Z,85
2017-04-08T15:12:55.378Z,85
2017-04-08T15:14:55.731Z,85
2017-04-08T15:15:55.757Z,85
2017-04-08T15:16:55.477Z,85
2017-04-08T15:18:10.420Z,80
2017-04-08T15:18:55.831Z,80
2017-04-08T15:20:55.888Z,80
2017-04-08T15:22:10.528Z,80
2017-04-08T15:22:55.923Z,80
2017-04-08T15:23:55.947Z,80
2017-04-08T15:24:55.975Z,75